MDJBTXKF

Guest
Details From MDJB - Dr Joaquin Balaguer Intl
To TXKF - Bermuda Intl
Flight Number -
Tags decoded
Created
Modified
Stats Distance 952 nm / 1,764 km
Max Altitude 0 ft / 0 m
Waypoints 8
Social Downloads 2
Likes 0
Share VATSIM

Download

Looking for another format? Having issues loading an existing format? Contact us
Advertisement - Login to hide

Notes

Requested: MDJB MDSD A319 PIXAR BETIR THANK G432 GRANN MOFFY TXKF Unmatched points: A319 GRANN

Route

MDJB MDSD PIXAR BETIR THANK G432 MOFFY TXKF

ID Type Via Altitude Latitude Longitude Leg Dist Tot Dist Heading (true) Name
O MDJB APT - 0 ft / 0 m 18.57251˚ -69.98561˚ - 0 nm - Dr Joaquin Balaguer Intl
MDSD APT - 0 ft / 0 m 18.42966˚ -69.66893˚ 19 nm 19 nm 115° / 115° Las Americas Intl
PIXAR FIX - 0 ft / 0 m 19.14167˚ -68.84028˚ 63 nm 83 nm 48° / 48° -
BETIR FIX - 0 ft / 0 m 19.34312˚ -68.60432˚ 18 nm 101 nm 48° / 48° -
THANK FIX - 0 ft / 0 m 21.46037˚ -66.05348˚ 191 nm 293 nm 48° / 49° -
GRANN FIX G432 (AWY-HI) 0 ft / 0 m 23.50000˚ -65.80000˚ 123 nm 416 nm 7° / 7° -
MOFFY FIX G432 (AWY-LO) 0 ft / 0 m 29.38333˚ -65.08333˚ 355 nm 772 nm 6° / 6° -
O TXKF APT - 0 ft / 0 m 32.36404˚ -64.67868˚ 180 nm 952 nm 7° / 7° Bermuda Intl

Altitude Profile

Advertisement - Login to hide

Weather


0- 5 10 15 20 25 30 35+ Temperature / ° C

Clouds and Precipitation
Forecast for 2017-12-15 00:00 UTC. Updated an hour ago

Ground ~20,000 ft ~40,000 ft Winds

MDJB

Details ICAO MDJB (JBQ)
Name Dr Joaquin Balaguer Intl
Region Dominican Republic
Timezone America/Santo_Domingo (UTC-4.0)
Stats Elevation 98 ft / 30 m (AMSL)
Location 18.572512° -69.985608°
Runways 1
Magnetic Variation 11.393° W

METAR

MDJB 142200Z 15006KT 9999 FEW020 27/21 Q1013 NOSIG

Decode

TAF

Not found

Departure Runways

ID Width Length Bearing (true) Bearing (mag) Surface Threshold Offset Overrun Length
01 100 ft / 30 m 5,448 ft / 1,661 m 6.40° 17.79° Asphalt 0 ft / 0 m 90 ft / 27 m
19 100 ft / 30 m 5,448 ft / 1,661 m 186.40° 197.79° Asphalt 0 ft / 0 m 105 ft / 32 m

TXKF

Details ICAO TXKF (BDA)
Name Bermuda Intl
Region Bermuda
Timezone Unknown (UTC+0.0)
Stats Elevation 12 ft / 4 m (AMSL)
Location 32.364038° -64.678684°
Runways 1
Magnetic Variation 14.784° W

METAR

TXKF 142155Z 23018KT 9999 FEW032 SCT063 BKN300 21/14 Q1016

Decode

TAF

TAF TXKF 141731Z 1418/1518 24018KT 9999 FEW045 BKN070

Decode

Destination Runways

ID Width Length Bearing (true) Bearing (mag) Surface Threshold Offset Overrun Length
12 150 ft / 46 m 9,701 ft / 2,957 m 101.50° 116.28° Asphalt 0 ft / 0 m 553 ft / 169 m
30 150 ft / 46 m 9,701 ft / 2,957 m 281.52° 296.30° Asphalt 0 ft / 0 m 207 ft / 63 m

Approach Navaids

Runway Type Ident Frequency Range Bearing (true) Bearing (mag) Slope Elevation
30 Localiser IBDA 109.90 MHz 18 nm / 33 km 281.50° 296.29° - 11 ft / 3 m (AMSL)
30 Glidescope IBDA 109.90 MHz 10 nm / 19 km 281.51° 296.29° 3.00° 11 ft / 3 m (AMSL)